METAR AND TAF INFORMATION
METAR FOR EHVK
ADDS - METARS form results

(0435 UTC 21 April 2021)
Data provider http://aviationweather.gov/metar/data/
 
METAR text: EHVK 210425Z AUTO 33003KT 280V360 7000 BR OVC075 07/05 Q1016 WHT
Conditions at: EHVK (VOLKEL RNLAFB , NL) observed 0425 UTC 21 April 2021
Temperature: 7.0°C (45°F)
Dewpoint: 5.0°C (41°F) [RH = 87%]
Pressure (altimeter): 30.00 inches Hg (1016.0 mb)
Winds: from the NNW (330 degrees) at 3 MPH (3 knots; 1.5 m/s)
Visibility: 4 miles ( 7 km)
Ceiling: 7500 feet AGL
Clouds: overcast cloud deck at 7500 feet AGL
Weather: BR  (mist)

METAR text: EHVK 210358Z AUTO 33003KT 300V360 7000 BR BKN072 07/05 Q1016 WHT
Conditions at: EHVK (VOLKEL RNLAFB , NL) observed 0358 UTC 21 April 2021
Temperature: 7.0°C (45°F)
Dewpoint: 5.0°C (41°F) [RH = 87%]
Pressure (altimeter): 30.00 inches Hg (1016.0 mb)
Winds: from the NNW (330 degrees) at 3 MPH (3 knots; 1.5 m/s)
Visibility: 4 miles ( 7 km)
Ceiling: 7200 feet AGL
Clouds: broken clouds at 7200 feet AGL
Weather: BR  (mist)

METAR text: EHVK 210355Z AUTO 34004KT 8000 BR FEW015CB BKN072 07/05 Q1016 BLU
Conditions at: EHVK (VOLKEL RNLAFB , NL) observed 0355 UTC 21 April 2021
Temperature: 7.0°C (45°F)
Dewpoint: 5.0°C (41°F) [RH = 87%]
Pressure (altimeter): 30.00 inches Hg (1016.0 mb)
Winds: from the NNW (340 degrees) at 5 MPH (4 knots; 2.1 m/s)
Visibility: 5 miles ( 8 km)
Ceiling: 7200 feet AGL
Clouds: few clouds at 1500 feet AGL
broken clouds at 7200 feet AGL
Weather: BR  (mist)

Forecast for: EHVK (VOLKEL RNLAFB , NL)
Text: TAF EHVK 210030Z 2101/2113 32003KT 9000 NSC
Forecast period: 0100 to 0900 UTC 21 April 2021
Forecast type: FROM: standard forecast or significant change
Winds: from the NW (320 degrees) at 3 MPH (3 knots; 1.5 m/s)
Visibility: 6 miles (9 km)
Ceiling: unknown
Clouds: missing
Weather: no significant weather forecast for this period
Text: PROB30 2101/2106 3000 BR
Forecast period: 0100 to 0600 UTC 21 April 2021
Forecast type: PROBABLE: 30 percent likelihood of the following during this time
Visibility: 1.86 miles (2.99 km)
Ceiling: unknown
Clouds: missing
Weather: BR  (mist)
Text: BECMG 2109/2112 36010KT
Forecast period: 0900 to 1300 UTC 21 April 2021
Forecast type: BECOMING: Conditions expected to become as follows by 1200 UTC 21 April 2021
Winds: from the N (360 degrees) at 12 MPH (10 knots; 5.1 m/s)
Visibility: 6 miles (9 km)
Ceiling: unknown
Clouds: missing
Weather: no significant weather forecast for this period

 AIRPORT MAP

 RUNWAY INFORMATION
Runway 06L Runway length 9922 ft Runway width 148 ft
Runway elevation 71 ft Runway displaced threshold 444 ft Runway heading 58
Runway 24R Runway length 9922 ft Runway width 148 ft
Runway elevation 64 ft Runway displaced threshold 444 ft Runway heading 238
Runway 06R Runway length 9931 ft Runway width 74 ft
Runway elevation 72 ft Runway displaced threshold 446 ft Runway heading 58
Runway 24L Runway length 9931 ft Runway width 74 ft
Runway elevation 65 ft Runway displaced threshold 446 ft Runway heading 238

 AIRPORT FREQUENCIES
Type APP Name RAPCON SOU Frequency 123.175 MHZ
Type GND Name GND Frequency 38.677 MHZ
Type TWR Name TWR Frequency 133.425 MHZ

 AIRPORT NEAR NAVIGATION AIDS
Type TACAN Name Volkel Frequency 108300 KHZ